Kendall J. Hebert — WDG7507 — position and weather

sailwx.info

Track history (hours):
 
Tides and Currents Weather Stations Pressure Air Temp Water Temp Dewpoint Dewpoint Depression Visibility Wind Speed Wind Dir Waves Ship Positions

Kendall J. Hebert

Owner: Gulf Coast Tugs, Inc., Larose, LA. More information available from US FCC via Universal Licensing System and Coast Guard Vessel Documentation Center.

Last reported at 2018-Jan-20 11:01 UTC. Time now 2018-Jan-20 15:28 UTC.
Position N 39°30' W 075°34'.

Length 24 m.

Type: Tug. MMSI: 367567990.

Date/timePositionNaut miles runAvg speedWind from/ knotsBaromVisibWave heightAir tempDewpointWater temp
2018-Jan-20 11:01N 39°30' W 075°34'8 7.2
2018-Jan-20 09:57N 39°38' W 075°35'4 7.0
2018-Jan-20 09:27N 39°40' W 075°32'3 6.8
2018-Jan-20 09:00N 39°43' W 075°30'3 5.8
2018-Jan-20 08:30N 39°46' W 075°29'2 1.6
2018-Jan-20 07:25N 39°47' W 075°27'0 0.9
2018-Jan-20 06:58N 39°47' W 075°27'0 0.0
2018-Jan-20 06:30N 39°47' W 075°27'0 0.0
2018-Jan-20 05:57N 39°47' W 075°27'3 3.0
2018-Jan-20 05:05N 39°45' W 075°29'0 5.4
2018-Jan-20 05:00N 39°44' W 075°30'15 8.5
2018-Jan-20 03:14N 39°30' W 075°34'2 8.9
2018-Jan-20 03:00N 39°28' W 075°33'4 8.9
2018-Jan-20 02:30N 39°24' W 075°30'4 8.3
2018-Jan-20 02:00N 39°21' W 075°26'4 8.1
2018-Jan-20 01:30N 39°18' W 075°23'4 7.9
2018-Jan-20 01:00N 39°15' W 075°19'4 7.4
2018-Jan-20 00:30N 39°12' W 075°17'4 1.0
2018-Jan-19 20:31N 39°08' W 075°14'1 7.9
2018-Jan-19 20:25N 39°09' W 075°15'3 7.9
2018-Jan-19 20:00N 39°12' W 075°17'4 7.5
2018-Jan-19 19:30N 39°15' W 075°19'4 7.1
2018-Jan-19 19:01N 39°18' W 075°23'3 6.7
2018-Jan-19 18:31N 39°20' W 075°25'3 5.8
2018-Jan-19 18:00N 39°22' W 075°28'3 5.1
2018-Jan-19 17:30N 39°24' W 075°30'2 4.8
2018-Jan-19 17:00N 39°26' W 075°32'2 4.3
2018-Jan-19 16:30N 39°28' W 075°34'2 4.2
2018-Jan-19 16:00N 39°30' W 075°33'2 4.1
2018-Jan-19 15:30N 39°32' W 075°33'2 3.9
2018-Jan-19 15:01N 39°34' W 075°33'2 4.5
2018-Jan-19 14:30N 39°36' W 075°34'2 4.6
2018-Jan-19 14:00N 39°38' W 075°34'3 5.8
2018-Jan-19 13:30N 39°40' W 075°32'3 6.9
2018-Jan-19 13:00N 39°44' W 075°30'3 6.5
2018-Jan-19 12:30N 39°47' W 075°28'1 1.8
2018-Jan-19 12:00N 39°47' W 075°27'0 0.2
2018-Jan-19 11:30N 39°47' W 075°27'0 0.0
2018-Jan-19 11:00N 39°47' W 075°27'0 0.0
2018-Jan-19 10:30N 39°47' W 075°27'0 0.0
2018-Jan-19 10:00N 39°47' W 075°27'0 0.0
2018-Jan-19 09:30N 39°47' W 075°27'0 0.0
2018-Jan-19 09:00N 39°47' W 075°27'0 0.0
2018-Jan-19 08:30N 39°47' W 075°27'0 0.0
2018-Jan-19 08:00N 39°47' W 075°27'0 0.0
2018-Jan-19 07:31N 39°47' W 075°27'0 0.0
2018-Jan-19 07:00N 39°47' W 075°27'0 0.5
2018-Jan-19 06:30N 39°47' W 075°27'0 0.0
2018-Jan-19 06:00N 39°47' W 075°27'0 0.0
2018-Jan-19 05:30N 39°47' W 075°27'0 0.0
2018-Jan-19 05:00N 39°47' W 075°27'0 0.0
2018-Jan-19 04:30N 39°47' W 075°27'0 0.0
2018-Jan-19 04:00N 39°47' W 075°27'0 0.0
2018-Jan-19 03:30N 39°47' W 075°27'0 0.0
2018-Jan-19 03:01N 39°47' W 075°27'0 0.0
2018-Jan-19 02:30N 39°47' W 075°27'0 0.1
2018-Jan-19 02:01N 39°47' W 075°27'0 0.1
2018-Jan-19 01:30N 39°47' W 075°27'0 0.7
2018-Jan-19 01:00N 39°47' W 075°28'2 3.1
2018-Jan-19 00:31N 39°45' W 075°29'3 5.8
2018-Jan-19 00:00N 39°43' W 075°31'3 5.7
2018-Jan-18 23:30N 39°40' W 075°32'3 5.5
2018-Jan-18 23:00N 39°38' W 075°34'3 5.1
2018-Jan-18 22:30N 39°36' W 075°34'3 5.3
2018-Jan-18 22:01N 39°33' W 075°32'3 5.0
2018-Jan-18 21:30N 39°31' W 075°33'2 5.0
2018-Jan-18 21:00N 39°28' W 075°34'5 5.6
2018-Jan-18 20:07N 39°24' W 075°30'1 6.0
2018-Jan-18 20:00N 39°24' W 075°29'3 6.2
2018-Jan-18 19:31N 39°21' W 075°27'3 6.2
2018-Jan-18 18:59N 39°19' W 075°24'3 6.3
2018-Jan-18 18:31N 39°17' W 075°21'3 6.8
2018-Jan-18 18:00N 39°14' W 075°18'4 7.0
2018-Jan-18 17:26N 39°11' W 075°16'9 0.7
2018-Jan-18 04:30N 39°03' W 075°10'3 6.0
2018-Jan-18 03:57N 39°06' W 075°12'3 5.4
2018-Jan-18 03:23N 39°08' W 075°14'2 5.1
2018-Jan-18 02:57N 39°10' W 075°16'2 4.4
2018-Jan-18 02:30N 39°12' W 075°17'2 4.2
2018-Jan-18 02:00N 39°14' W 075°18'2 4.4
2018-Jan-18 01:30N 39°15' W 075°20'2 4.5
2018-Jan-18 01:00N 39°17' W 075°22'5 5.4
2018-Jan-18 00:00N 39°21' W 075°26'0 6.4
2018-Jan-17 23:57N 39°21' W 075°27'  
2018-Jan-12 15:00N 36°51' W 076°16'0 0.0
2018-Jan-12 14:29N 36°51' W 076°16'0 0.0
2018-Jan-12 14:00N 36°50' W 076°16'0 0.0
2018-Jan-12 13:30N 36°51' W 076°16'0 0.0
2018-Jan-12 12:59N 36°51' W 076°16'0 0.0
2018-Jan-12 11:07N 36°51' W 076°16'0 0.0
2018-Jan-12 10:08N 36°51' W 076°16'0 0.0
2018-Jan-12 08:39N 36°51' W 076°16'0 0.1
2018-Jan-12 08:30N 36°51' W 076°16'0 0.0
2018-Jan-12 07:59N 36°51' W 076°16'0 0.0
2018-Jan-12 07:30N 36°50' W 076°16'0 0.0
2018-Jan-12 07:00N 36°51' W 076°16'0 0.0
2018-Jan-12 06:28N 36°51' W 076°16'0 0.0
2018-Jan-12 05:59N 36°51' W 076°16'0 0.0
2018-Jan-12 05:30N 36°51' W 076°16'0 0.0
2018-Jan-12 04:41N 36°51' W 076°16'0 0.0
2018-Jan-12 04:24N 36°51' W 076°16'0 0.0
2018-Jan-12 04:00N 36°51' W 076°16'0 0.0
2018-Jan-12 03:30N 36°51' W 076°16'0 0.0
2018-Jan-12 03:00N 36°51' W 076°16'0 0.0
2018-Jan-12 02:30N 36°51' W 076°16'0 0.0
2018-Jan-12 02:00N 36°51' W 076°16'0 0.0
2018-Jan-12 01:29N 36°51' W 076°16'0 0.0
2018-Jan-12 01:00N 36°51' W 076°16'0 0.0
2018-Jan-12 00:30N 36°51' W 076°16'0 0.0
2018-Jan-11 23:59N 36°51' W 076°16'0 0.0
2018-Jan-11 23:21N 36°51' W 076°16'0 0.0
2018-Jan-11 22:58N 36°51' W 076°16'0 0.0
2018-Jan-11 22:30N 36°51' W 076°16'0 0.0
2018-Jan-11 22:00N 36°51' W 076°16'0 0.0
2018-Jan-11 21:30N 36°51' W 076°16'0 0.0
2018-Jan-11 20:53N 36°51' W 076°16'0 0.1
2018-Jan-11 20:30N 36°50' W 076°16'0 0.0
2018-Jan-10 20:35N 36°51' W 076°16'0 0.0
2018-Jan-10 20:26N 36°51' W 076°16'0 0.0
2018-Jan-10 19:56N 36°51' W 076°16'0 0.0
2018-Jan-10 18:47N 36°51' W 076°16'0 0.0
2018-Jan-10 17:30N 36°51' W 076°16'0 0.0
2018-Jan-10 15:32N 36°51' W 076°16'0 0.0
2018-Jan-10 14:11N 36°51' W 076°16'0 0.0
2018-Jan-10 11:50N 36°51' W 076°16'  
Track history (hours):
 
Tides and Currents Weather Stations Pressure Air Temp Water Temp Dewpoint Dewpoint Depression Visibility Wind Speed Wind Dir Waves Ship Positions

Kendall J. Hebert

Owner: Gulf Coast Tugs, Inc., Larose, LA. More information available from US FCC via Universal Licensing System and Coast Guard Vessel Documentation Center.

Last reported at 2018-Jan-20 11:01 UTC. Time now 2018-Jan-20 15:28 UTC.
Position N 39°30' W 075°34'.

Length 24 m.

Type: Tug. MMSI: 367567990.

Date/timePositionNaut miles runAvg speedWind from/ knotsBaromVisibWave heightAir tempDewpointWater temp
2018-Jan-20 11:01N 39°30' W 075°34'8 7.2
2018-Jan-20 09:57N 39°38' W 075°35'4 7.0
2018-Jan-20 09:27N 39°40' W 075°32'3 6.8
2018-Jan-20 09:00N 39°43' W 075°30'3 5.8
2018-Jan-20 08:30N 39°46' W 075°29'2 1.6
2018-Jan-20 07:25N 39°47' W 075°27'0 0.9
2018-Jan-20 06:58N 39°47' W 075°27'0 0.0
2018-Jan-20 06:30N 39°47' W 075°27'0 0.0
2018-Jan-20 05:57N 39°47' W 075°27'3 3.0
2018-Jan-20 05:05N 39°45' W 075°29'0 5.4
2018-Jan-20 05:00N 39°44' W 075°30'15 8.5
2018-Jan-20 03:14N 39°30' W 075°34'2 8.9
2018-Jan-20 03:00N 39°28' W 075°33'4 8.9
2018-Jan-20 02:30N 39°24' W 075°30'4 8.3
2018-Jan-20 02:00N 39°21' W 075°26'4 8.1
2018-Jan-20 01:30N 39°18' W 075°23'4 7.9
2018-Jan-20 01:00N 39°15' W 075°19'4 7.4
2018-Jan-20 00:30N 39°12' W 075°17'4 1.0
2018-Jan-19 20:31N 39°08' W 075°14'1 7.9
2018-Jan-19 20:25N 39°09' W 075°15'3 7.9
2018-Jan-19 20:00N 39°12' W 075°17'4 7.5
2018-Jan-19 19:30N 39°15' W 075°19'4 7.1
2018-Jan-19 19:01N 39°18' W 075°23'3 6.7
2018-Jan-19 18:31N 39°20' W 075°25'3 5.8
2018-Jan-19 18:00N 39°22' W 075°28'3 5.1
2018-Jan-19 17:30N 39°24' W 075°30'2 4.8
2018-Jan-19 17:00N 39°26' W 075°32'2 4.3
2018-Jan-19 16:30N 39°28' W 075°34'2 4.2
2018-Jan-19 16:00N 39°30' W 075°33'2 4.1
2018-Jan-19 15:30N 39°32' W 075°33'2 3.9
2018-Jan-19 15:01N 39°34' W 075°33'2 4.5
2018-Jan-19 14:30N 39°36' W 075°34'2 4.6
2018-Jan-19 14:00N 39°38' W 075°34'3 5.8
2018-Jan-19 13:30N 39°40' W 075°32'3 6.9
2018-Jan-19 13:00N 39°44' W 075°30'3 6.5
2018-Jan-19 12:30N 39°47' W 075°28'1 1.8
2018-Jan-19 12:00N 39°47' W 075°27'0 0.2
2018-Jan-19 11:30N 39°47' W 075°27'0 0.0
2018-Jan-19 11:00N 39°47' W 075°27'0 0.0
2018-Jan-19 10:30N 39°47' W 075°27'0 0.0
2018-Jan-19 10:00N 39°47' W 075°27'0 0.0
2018-Jan-19 09:30N 39°47' W 075°27'0 0.0
2018-Jan-19 09:00N 39°47' W 075°27'0 0.0
2018-Jan-19 08:30N 39°47' W 075°27'0 0.0
2018-Jan-19 08:00N 39°47' W 075°27'0 0.0
2018-Jan-19 07:31N 39°47' W 075°27'0 0.0
2018-Jan-19 07:00N 39°47' W 075°27'0 0.5
2018-Jan-19 06:30N 39°47' W 075°27'0 0.0
2018-Jan-19 06:00N 39°47' W 075°27'0 0.0
2018-Jan-19 05:30N 39°47' W 075°27'0 0.0
2018-Jan-19 05:00N 39°47' W 075°27'0 0.0
2018-Jan-19 04:30N 39°47' W 075°27'0 0.0
2018-Jan-19 04:00N 39°47' W 075°27'0 0.0
2018-Jan-19 03:30N 39°47' W 075°27'0 0.0
2018-Jan-19 03:01N 39°47' W 075°27'0 0.0
2018-Jan-19 02:30N 39°47' W 075°27'0 0.1
2018-Jan-19 02:01N 39°47' W 075°27'0 0.1
2018-Jan-19 01:30N 39°47' W 075°27'0 0.7
2018-Jan-19 01:00N 39°47' W 075°28'2 3.1
2018-Jan-19 00:31N 39°45' W 075°29'3 5.8
2018-Jan-19 00:00N 39°43' W 075°31'3 5.7
2018-Jan-18 23:30N 39°40' W 075°32'3 5.5
2018-Jan-18 23:00N 39°38' W 075°34'3 5.1
2018-Jan-18 22:30N 39°36' W 075°34'3 5.3
2018-Jan-18 22:01N 39°33' W 075°32'3 5.0
2018-Jan-18 21:30N 39°31' W 075°33'2 5.0
2018-Jan-18 21:00N 39°28' W 075°34'5 5.6
2018-Jan-18 20:07N 39°24' W 075°30'1 6.0
2018-Jan-18 20:00N 39°24' W 075°29'3 6.2
2018-Jan-18 19:31N 39°21' W 075°27'3 6.2
2018-Jan-18 18:59N 39°19' W 075°24'3 6.3
2018-Jan-18 18:31N 39°17' W 075°21'3 6.8
2018-Jan-18 18:00N 39°14' W 075°18'4 7.0
2018-Jan-18 17:26N 39°11' W 075°16'9 0.7
2018-Jan-18 04:30N 39°03' W 075°10'3 6.0
2018-Jan-18 03:57N 39°06' W 075°12'3 5.4
2018-Jan-18 03:23N 39°08' W 075°14'2 5.1
2018-Jan-18 02:57N 39°10' W 075°16'2 4.4
2018-Jan-18 02:30N 39°12' W 075°17'2 4.2
2018-Jan-18 02:00N 39°14' W 075°18'2 4.4
2018-Jan-18 01:30N 39°15' W 075°20'2 4.5
2018-Jan-18 01:00N 39°17' W 075°22'5 5.4
2018-Jan-18 00:00N 39°21' W 075°26'0 6.4
2018-Jan-17 23:57N 39°21' W 075°27'  
2018-Jan-12 15:00N 36°51' W 076°16'0 0.0
2018-Jan-12 14:29N 36°51' W 076°16'0 0.0
2018-Jan-12 14:00N 36°50' W 076°16'0 0.0
2018-Jan-12 13:30N 36°51' W 076°16'0 0.0
2018-Jan-12 12:59N 36°51' W 076°16'0 0.0
2018-Jan-12 11:07N 36°51' W 076°16'0 0.0
2018-Jan-12 10:08N 36°51' W 076°16'0 0.0
2018-Jan-12 08:39N 36°51' W 076°16'0 0.1
2018-Jan-12 08:30N 36°51' W 076°16'0 0.0
2018-Jan-12 07:59N 36°51' W 076°16'0 0.0
2018-Jan-12 07:30N 36°50' W 076°16'0 0.0
2018-Jan-12 07:00N 36°51' W 076°16'0 0.0
2018-Jan-12 06:28N 36°51' W 076°16'0 0.0
2018-Jan-12 05:59N 36°51' W 076°16'0 0.0
2018-Jan-12 05:30N 36°51' W 076°16'0 0.0
2018-Jan-12 04:41N 36°51' W 076°16'0 0.0
2018-Jan-12 04:24N 36°51' W 076°16'0 0.0
2018-Jan-12 04:00N 36°51' W 076°16'0 0.0
2018-Jan-12 03:30N 36°51' W 076°16'0 0.0
2018-Jan-12 03:00N 36°51' W 076°16'0 0.0
2018-Jan-12 02:30N 36°51' W 076°16'0 0.0
2018-Jan-12 02:00N 36°51' W 076°16'0 0.0
2018-Jan-12 01:29N 36°51' W 076°16'0 0.0
2018-Jan-12 01:00N 36°51' W 076°16'0 0.0
2018-Jan-12 00:30N 36°51' W 076°16'0 0.0
2018-Jan-11 23:59N 36°51' W 076°16'0 0.0
2018-Jan-11 23:21N 36°51' W 076°16'0 0.0
2018-Jan-11 22:58N 36°51' W 076°16'0 0.0
2018-Jan-11 22:30N 36°51' W 076°16'0 0.0
2018-Jan-11 22:00N 36°51' W 076°16'0 0.0
2018-Jan-11 21:30N 36°51' W 076°16'0 0.0
2018-Jan-11 20:53N 36°51' W 076°16'0 0.1
2018-Jan-11 20:30N 36°50' W 076°16'0 0.0
2018-Jan-10 20:35N 36°51' W 076°16'0 0.0
2018-Jan-10 20:26N 36°51' W 076°16'0 0.0
2018-Jan-10 19:56N 36°51' W 076°16'0 0.0
2018-Jan-10 18:47N 36°51' W 076°16'0 0.0
2018-Jan-10 17:30N 36°51' W 076°16'0 0.0
2018-Jan-10 15:32N 36°51' W 076°16'0 0.0
2018-Jan-10 14:11N 36°51' W 076°16'0 0.0
2018-Jan-10 11:50N 36°51' W 076°16'  

Dump ship's entire track history